createdAt,value
2019-03-21T00:00:07.671Z,0
2019-03-21T00:01:08.328Z,0
2019-03-21T00:02:08.973Z,0
2019-03-21T00:03:09.658Z,0
2019-03-21T00:04:10.358Z,0
2019-03-21T00:05:11.032Z,0
2019-03-21T00:06:11.771Z,0
2019-03-21T00:07:12.461Z,0
2019-03-21T00:08:13.150Z,0
2019-03-21T00:09:13.847Z,0
2019-03-21T00:10:14.532Z,0
2019-03-21T00:11:15.220Z,0
2019-03-21T00:12:15.909Z,0
2019-03-21T00:13:16.598Z,0
2019-03-21T00:14:17.297Z,0
2019-03-21T00:15:17.970Z,0
2019-03-21T00:16:18.661Z,0
2019-03-21T00:17:19.349Z,0
2019-03-21T00:18:20.037Z,0
2019-03-21T00:19:20.726Z,0
2019-03-21T00:20:21.415Z,0
2019-03-21T00:21:22.105Z,0
2019-03-21T00:22:22.806Z,0
2019-03-21T00:23:23.575Z,0
2019-03-21T00:24:24.250Z,0
2019-03-21T00:25:24.914Z,0
2019-03-21T00:26:25.603Z,0
2019-03-21T00:27:26.289Z,0
2019-03-21T00:28:26.974Z,0
2019-03-21T00:29:27.670Z,0
2019-03-21T00:30:28.353Z,0
2019-03-21T00:31:29.072Z,0
2019-03-21T00:32:29.744Z,0
2019-03-21T00:33:30.430Z,0
2019-03-21T00:34:31.120Z,0
2019-03-21T00:35:31.806Z,0
2019-03-21T00:36:32.495Z,0
2019-03-21T00:37:33.188Z,0
2019-03-21T00:38:33.872Z,0
2019-03-21T00:39:34.559Z,0
2019-03-21T00:40:35.257Z,0
2019-03-21T00:41:35.939Z,0
2019-03-21T00:42:36.625Z,0
2019-03-21T00:43:37.325Z,0
2019-03-21T00:44:38.017Z,0
2019-03-21T00:45:38.700Z,0
2019-03-21T00:46:39.383Z,0
2019-03-21T00:47:40.074Z,0
2019-03-21T00:48:40.761Z,0
2019-03-21T00:49:41.447Z,0
2019-03-21T00:50:42.135Z,0
2019-03-21T00:51:42.789Z,0
2019-03-21T00:52:43.477Z,0
2019-03-21T00:53:44.275Z,0
2019-03-21T00:54:45.011Z,0
2019-03-21T00:55:45.681Z,0
2019-03-21T00:56:46.352Z,0
2019-03-21T00:57:47.041Z,0
2019-03-21T00:58:47.702Z,0
2019-03-21T00:59:48.397Z,0
2019-03-21T01:00:49.086Z,0
2019-03-21T01:01:49.774Z,0
2019-03-21T01:02:50.491Z,0
2019-03-21T01:03:51.138Z,0
2019-03-21T01:04:51.844Z,0
2019-03-21T01:05:52.527Z,0
2019-03-21T01:06:53.230Z,0
2019-03-21T01:07:53.919Z,0
2019-03-21T01:08:54.599Z,0
2019-03-21T01:09:55.309Z,0
2019-03-21T01:10:55.979Z,0
2019-03-21T01:11:56.671Z,0
2019-03-21T01:12:57.363Z,0
2019-03-21T01:13:58.057Z,0
2019-03-21T01:14:58.749Z,0
2019-03-21T01:15:59.434Z,0
2019-03-21T01:17:00.132Z,0
2019-03-21T01:18:00.825Z,0
2019-03-21T01:19:01.516Z,0
2019-03-21T01:20:02.196Z,0
2019-03-21T01:21:02.903Z,0
2019-03-21T01:22:03.570Z,0
2019-03-21T01:23:04.260Z,0
2019-03-21T01:24:04.958Z,0
2019-03-21T01:25:05.637Z,0
2019-03-21T01:26:06.327Z,0
2019-03-21T01:27:07.029Z,0
2019-03-21T01:28:07.708Z,0
2019-03-21T01:29:08.397Z,0
2019-03-21T01:30:09.085Z,0
2019-03-21T01:31:09.772Z,0
2019-03-21T01:32:10.460Z,0
2019-03-21T01:33:11.141Z,0
2019-03-21T01:34:11.834Z,0
2019-03-21T01:35:12.834Z,0
2019-03-21T01:36:13.519Z,0
2019-03-21T01:37:14.202Z,0
2019-03-21T01:38:14.899Z,0
2019-03-21T01:39:15.577Z,0
2019-03-21T01:40:16.264Z,0
2019-03-21T01:41:16.922Z,0
2019-03-21T01:42:17.608Z,0
2019-03-21T01:43:18.295Z,0
2019-03-21T01:44:18.986Z,0
2019-03-21T01:45:19.677Z,0
2019-03-21T01:46:20.374Z,0
2019-03-21T01:47:21.051Z,0
2019-03-21T01:48:21.748Z,0
2019-03-21T01:49:22.428Z,0
2019-03-21T01:50:23.114Z,0
2019-03-21T01:51:23.817Z,0
2019-03-21T01:52:24.496Z,0
2019-03-21T01:53:25.187Z,0
2019-03-21T01:54:25.869Z,0
2019-03-21T01:55:26.561Z,0
2019-03-21T01:56:27.269Z,0
2019-03-21T01:57:27.955Z,0
2019-03-21T01:58:28.632Z,0
2019-03-21T01:59:29.325Z,0
2019-03-21T02:00:30.008Z,0
2019-03-21T02:01:30.700Z,0
2019-03-21T02:02:31.384Z,0
2019-03-21T02:03:32.070Z,0
2019-03-21T02:04:32.763Z,0
2019-03-21T02:05:33.475Z,0
2019-03-21T02:06:34.147Z,0
2019-03-21T02:07:34.839Z,0
2019-03-21T02:08:35.495Z,0
2019-03-21T02:09:36.186Z,0
2019-03-21T02:10:36.877Z,0
2019-03-21T02:11:38.738Z,0
2019-03-21T02:12:38.245Z,0
2019-03-21T02:13:38.944Z,0
2019-03-21T02:14:39.621Z,0
2019-03-21T02:15:40.810Z,0
2019-03-21T02:16:41.553Z,0
2019-03-21T02:17:42.233Z,0
2019-03-21T02:18:42.925Z,0
2019-03-21T02:19:43.628Z,0
2019-03-21T02:20:44.272Z,0
2019-03-21T02:21:44.969Z,0
2019-03-21T02:22:45.656Z,0
2019-03-21T02:23:46.340Z,0
2019-03-21T02:24:47.029Z,0
2019-03-21T02:25:47.724Z,0
2019-03-21T02:26:48.415Z,0
2019-03-21T02:27:49.090Z,0
2019-03-21T02:28:49.785Z,0
2019-03-21T02:29:50.467Z,0
2019-03-21T02:30:51.202Z,0
2019-03-21T02:31:52.013Z,0
2019-03-21T02:32:52.700Z,0
2019-03-21T02:33:53.401Z,0
2019-03-21T02:34:54.098Z,0
2019-03-21T02:35:54.760Z,0
2019-03-21T02:36:55.448Z,0
2019-03-21T02:37:56.129Z,0
2019-03-21T02:38:56.814Z,0
2019-03-21T02:39:59.826Z,0
2019-03-21T02:40:58.191Z,0
2019-03-21T02:41:58.877Z,0
2019-03-21T02:42:59.566Z,0
2019-03-21T02:44:00.259Z,0
2019-03-21T02:45:08.653Z,0
2019-03-21T02:46:01.625Z,0
2019-03-21T02:47:02.319Z,0
2019-03-21T02:48:03.023Z,0
2019-03-21T02:49:03.687Z,0
2019-03-21T02:50:04.342Z,0
2019-03-21T02:51:05.028Z,0
2019-03-21T02:52:05.714Z,0
2019-03-21T02:53:06.405Z,0
2019-03-21T02:54:07.098Z,0
2019-03-21T02:55:07.793Z,0
2019-03-21T02:56:08.473Z,0
2019-03-21T02:57:09.166Z,0
2019-03-21T02:58:09.855Z,0
2019-03-21T02:59:10.542Z,0
2019-03-21T03:00:11.225Z,0
2019-03-21T03:01:11.913Z,0
2019-03-21T03:02:12.602Z,0
2019-03-21T03:03:13.288Z,0
2019-03-21T03:04:14.007Z,0
2019-03-21T03:05:14.680Z,0
2019-03-21T03:06:15.374Z,0
2019-03-21T03:07:16.070Z,0
2019-03-21T03:08:16.752Z,0
2019-03-21T03:09:17.441Z,0
2019-03-21T03:10:18.130Z,0
2019-03-21T03:11:18.816Z,0
2019-03-21T03:12:19.517Z,0
2019-03-21T03:13:20.191Z,0
2019-03-21T03:14:20.888Z,0
2019-03-21T03:15:23.432Z,0
2019-03-21T03:16:22.258Z,0
2019-03-21T03:17:22.955Z,0
2019-03-21T03:18:23.640Z,0
2019-03-21T03:19:24.322Z,0
2019-03-21T03:20:25.010Z,0
2019-03-21T03:21:25.705Z,0
2019-03-21T03:22:26.390Z,0
2019-03-21T03:23:27.090Z,0
2019-03-21T03:24:27.762Z,0
2019-03-21T03:25:28.459Z,0
2019-03-21T03:26:29.142Z,0
2019-03-21T03:27:29.845Z,0
2019-03-21T03:28:30.522Z,0
2019-03-21T03:29:31.209Z,0
2019-03-21T03:30:31.900Z,0
2019-03-21T03:31:32.608Z,0
2019-03-21T03:32:33.263Z,0
2019-03-21T03:33:33.959Z,0
2019-03-21T03:34:34.651Z,0
2019-03-21T03:35:35.326Z,0
2019-03-21T03:36:36.017Z,0
2019-03-21T03:37:36.714Z,0
2019-03-21T03:38:37.391Z,0
2019-03-21T03:39:38.076Z,0
2019-03-21T03:40:38.766Z,0
2019-03-21T03:41:39.450Z,0
2019-03-21T03:42:40.134Z,0
2019-03-21T03:43:40.822Z,0
2019-03-21T03:44:41.519Z,0
2019-03-21T03:45:42.196Z,0
2019-03-21T03:46:42.894Z,0
2019-03-21T03:47:43.570Z,0
2019-03-21T03:48:44.263Z,0
2019-03-21T03:49:44.947Z,0
2019-03-21T03:50:45.634Z,0
2019-03-21T03:51:46.325Z,0
2019-03-21T03:52:47.016Z,0
2019-03-21T03:53:47.702Z,0
2019-03-21T03:54:48.390Z,0
2019-03-21T03:55:49.075Z,0
2019-03-21T03:56:49.769Z,0
2019-03-21T03:57:50.452Z,0
2019-03-21T03:58:51.142Z,0
2019-03-21T03:59:51.824Z,0
2019-03-21T04:00:52.512Z,0
2019-03-21T04:01:53.201Z,0
2019-03-21T04:02:53.893Z,0
2019-03-21T04:03:54.589Z,0
2019-03-21T04:04:55.265Z,0
2019-03-21T04:05:55.922Z,0
2019-03-21T04:06:56.610Z,0
2019-03-21T04:07:57.300Z,0
2019-03-21T04:08:57.985Z,0
2019-03-21T04:09:58.697Z,0
2019-03-21T04:10:59.366Z,0
2019-03-21T04:12:00.047Z,0
2019-03-21T04:13:00.736Z,0
2019-03-21T04:14:01.429Z,0
2019-03-21T04:15:02.152Z,0
2019-03-21T04:16:02.790Z,0
2019-03-21T04:17:03.457Z,0
2019-03-21T04:18:04.137Z,0
2019-03-21T04:19:04.825Z,0
2019-03-21T04:20:05.508Z,0
2019-03-21T04:21:06.195Z,0
2019-03-21T04:22:06.881Z,0
2019-03-21T04:23:07.568Z,0
2019-03-21T04:24:08.254Z,0
2019-03-21T04:25:08.946Z,0
2019-03-21T04:26:09.630Z,0
2019-03-21T04:27:10.319Z,0
2019-03-21T04:28:11.005Z,0
2019-03-21T04:29:11.694Z,0
2019-03-21T04:30:12.382Z,0
2019-03-21T04:31:13.071Z,0
2019-03-21T04:32:13.763Z,0
2019-03-21T04:33:14.444Z,0
2019-03-21T04:34:15.128Z,0
2019-03-21T04:35:15.812Z,0
2019-03-21T04:36:16.513Z,0
2019-03-21T04:37:17.192Z,0
2019-03-21T04:38:17.877Z,0
2019-03-21T04:39:18.562Z,0
2019-03-21T04:40:19.256Z,0
2019-03-21T04:41:19.952Z,0
2019-03-21T04:42:20.631Z,0
2019-03-21T04:43:21.320Z,0
2019-03-21T04:44:22.011Z,0
2019-03-21T04:45:22.696Z,0
2019-03-21T04:46:23.383Z,0
2019-03-21T04:47:24.071Z,0
2019-03-21T04:48:24.759Z,0
2019-03-21T04:49:25.443Z,0
2019-03-21T04:50:26.126Z,0
2019-03-21T04:51:26.831Z,0
2019-03-21T04:52:27.539Z,0
2019-03-21T04:53:28.181Z,0
2019-03-21T04:54:28.864Z,0
2019-03-21T04:55:29.547Z,0
2019-03-21T04:56:30.235Z,0
2019-03-21T04:57:30.923Z,0
2019-03-21T04:58:31.609Z,0
2019-03-21T04:59:32.295Z,4
2019-03-21T05:00:32.984Z,4
2019-03-21T05:01:33.674Z,0
2019-03-21T05:02:34.358Z,4
2019-03-21T05:03:35.042Z,4
2019-03-21T05:04:35.729Z,4
2019-03-21T05:05:36.421Z,4
2019-03-21T05:06:37.137Z,4
2019-03-21T05:07:37.793Z,4
2019-03-21T05:08:38.481Z,8
2019-03-21T05:09:39.171Z,8
2019-03-21T05:10:39.859Z,12
2019-03-21T05:11:40.552Z,12
2019-03-21T05:12:41.239Z,20
2019-03-21T05:13:41.904Z,20
2019-03-21T05:14:42.585Z,24
2019-03-21T05:15:43.284Z,28
2019-03-21T05:16:43.966Z,32
2019-03-21T05:17:44.647Z,36
2019-03-21T05:18:45.336Z,44
2019-03-21T05:19:46.022Z,48
2019-03-21T05:20:46.708Z,52
2019-03-21T05:21:47.391Z,56
2019-03-21T05:22:48.078Z,68
2019-03-21T05:23:48.770Z,68
2019-03-21T05:24:49.462Z,76
2019-03-21T05:25:50.145Z,84
2019-03-21T05:26:50.830Z,92
2019-03-21T05:27:51.520Z,104
2019-03-21T05:28:52.213Z,112
2019-03-21T05:29:52.908Z,120
2019-03-21T05:30:53.591Z,124
2019-03-21T05:31:54.284Z,136
2019-03-21T05:32:54.970Z,144
2019-03-21T05:33:55.662Z,156
2019-03-21T05:34:56.346Z,164
2019-03-21T05:35:57.031Z,176
2019-03-21T05:36:57.743Z,192
2019-03-21T05:37:58.415Z,208
2019-03-21T05:38:59.102Z,220
2019-03-21T05:39:59.788Z,236
2019-03-21T05:41:00.483Z,256
2019-03-21T05:42:01.172Z,268
2019-03-21T05:43:01.862Z,292
2019-03-21T05:44:02.551Z,320
2019-03-21T05:45:03.239Z,356
2019-03-21T05:46:03.940Z,392
2019-03-21T05:47:04.623Z,428
2019-03-21T05:48:05.317Z,456
2019-03-21T05:49:06.001Z,472
2019-03-21T05:50:06.693Z,484
2019-03-21T05:51:07.383Z,504
2019-03-21T05:52:08.080Z,524
2019-03-21T05:53:08.772Z,544
2019-03-21T05:54:09.468Z,548
2019-03-21T05:55:10.162Z,544
2019-03-21T05:56:10.870Z,556
2019-03-21T05:57:11.538Z,572
2019-03-21T05:58:12.231Z,584
2019-03-21T05:59:12.920Z,612
2019-03-21T06:00:13.620Z,640
2019-03-21T06:01:14.377Z,688
2019-03-21T06:02:14.996Z,724
2019-03-21T06:03:15.714Z,752
2019-03-21T06:04:16.429Z,776
2019-03-21T06:05:17.099Z,784
2019-03-21T06:06:17.789Z,808
2019-03-21T06:07:18.450Z,856
2019-03-21T06:08:19.143Z,876
2019-03-21T06:09:19.829Z,836
2019-03-21T06:10:20.546Z,824
2019-03-21T06:11:21.223Z,900
2019-03-21T06:12:21.907Z,1004
2019-03-21T06:13:22.594Z,1052
2019-03-21T06:14:23.289Z,1068
2019-03-21T06:15:23.983Z,1064
2019-03-21T06:16:24.681Z,1068
2019-03-21T06:17:25.373Z,1052
2019-03-21T06:18:26.073Z,1052
2019-03-21T06:19:26.753Z,1096
2019-03-21T06:20:27.444Z,1136
2019-03-21T06:21:28.151Z,1136
2019-03-21T06:22:28.852Z,1148
2019-03-21T06:23:29.551Z,1172
2019-03-21T06:24:30.231Z,1216
2019-03-21T06:25:30.926Z,1248
2019-03-21T06:26:31.616Z,1264
2019-03-21T06:27:32.304Z,1292
2019-03-21T06:28:32.992Z,1284
2019-03-21T06:29:33.686Z,1260
2019-03-21T06:30:34.379Z,1260
2019-03-21T06:31:35.075Z,1288
2019-03-21T06:32:35.764Z,1312
2019-03-21T06:33:36.455Z,1284
2019-03-21T06:34:37.142Z,1256
2019-03-21T06:35:37.838Z,1244
2019-03-21T06:36:38.540Z,1216
2019-03-21T06:37:39.215Z,1224
2019-03-21T06:38:39.909Z,1224
2019-03-21T06:39:40.599Z,1212
2019-03-21T06:40:41.289Z,1224
2019-03-21T06:41:41.986Z,1308
2019-03-21T06:42:42.676Z,1404
2019-03-21T06:43:43.362Z,1448
2019-03-21T06:44:44.057Z,1496
2019-03-21T06:45:48.171Z,1576
2019-03-21T06:46:49.695Z,1648
2019-03-21T06:47:46.123Z,1748
2019-03-21T06:48:46.817Z,1832
2019-03-21T06:49:47.512Z,1852
2019-03-21T06:50:48.197Z,1880
2019-03-21T06:51:48.886Z,1968
2019-03-21T06:52:49.577Z,2076
2019-03-21T06:53:50.279Z,2208
2019-03-21T06:54:50.958Z,2396
2019-03-21T06:55:51.652Z,2572
2019-03-21T06:56:52.349Z,2748
2019-03-21T06:57:53.047Z,2920
2019-03-21T06:58:53.736Z,2920
2019-03-21T06:59:54.430Z,2828
2019-03-21T07:00:55.126Z,2768
2019-03-21T07:01:55.853Z,2856
2019-03-21T07:02:56.550Z,2928
2019-03-21T07:04:06.526Z,2956
2019-03-21T07:04:57.928Z,3068
2019-03-21T07:05:58.623Z,3252
2019-03-21T07:07:07.496Z,3372
2019-03-21T07:08:00.003Z,3420
2019-03-21T07:09:00.689Z,3444
2019-03-21T07:10:01.384Z,3500
2019-03-21T07:11:02.076Z,3616
2019-03-21T07:12:02.768Z,3756
2019-03-21T07:13:03.462Z,3880
2019-03-21T07:14:04.149Z,3904
2019-03-21T07:15:04.850Z,3940
2019-03-21T07:16:05.538Z,3996
2019-03-21T07:17:06.232Z,4096
2019-03-21T07:18:06.927Z,4208
2019-03-21T07:19:07.619Z,4328
2019-03-21T07:20:08.313Z,4380
2019-03-21T07:21:09.016Z,4356
2019-03-21T07:22:12.245Z,4396
2019-03-21T07:23:10.384Z,4468
2019-03-21T07:24:11.080Z,4532
2019-03-21T07:25:11.782Z,4608
2019-03-21T07:26:12.472Z,4756
2019-03-21T07:27:13.166Z,4896
2019-03-21T07:28:13.903Z,4972
2019-03-21T07:29:14.542Z,5112
2019-03-21T07:30:15.235Z,5440
2019-03-21T07:31:15.928Z,5808
2019-03-21T07:32:16.620Z,6104
2019-03-21T07:33:17.369Z,6264
2019-03-21T07:34:18.060Z,6272
2019-03-21T07:35:18.824Z,6452
2019-03-21T07:36:19.972Z,6596
2019-03-21T07:37:20.661Z,6660
2019-03-21T07:38:21.359Z,6756
2019-03-21T07:39:22.046Z,7168
2019-03-21T07:40:22.738Z,7464
2019-03-21T07:41:23.435Z,7520
2019-03-21T07:42:24.131Z,7628
2019-03-21T07:43:24.824Z,7816
2019-03-21T07:44:25.515Z,7804
2019-03-21T07:45:26.208Z,7632
2019-03-21T07:46:26.869Z,7216
2019-03-21T07:47:27.560Z,6968
2019-03-21T07:48:28.253Z,7120
2019-03-21T07:49:28.951Z,7340
2019-03-21T07:50:29.636Z,7560
2019-03-21T07:51:30.327Z,7944
2019-03-21T07:52:31.023Z,8184
2019-03-21T07:53:31.713Z,8216
2019-03-21T07:54:32.404Z,8384
2019-03-21T07:55:33.099Z,8520
2019-03-21T07:56:33.763Z,8564
2019-03-21T07:57:34.424Z,8688
2019-03-21T07:58:35.117Z,9168
2019-03-21T07:59:35.814Z,9776
2019-03-21T08:00:36.505Z,10272
2019-03-21T08:01:37.199Z,10472
2019-03-21T08:02:37.887Z,10744
2019-03-21T08:03:38.550Z,10928
2019-03-21T08:04:39.249Z,11308
2019-03-21T08:05:40.847Z,11896
2019-03-21T08:06:40.639Z,12540
2019-03-21T08:07:41.341Z,12696
2019-03-21T08:08:42.035Z,12928
2019-03-21T08:09:42.842Z,13848
2019-03-21T08:10:43.431Z,14996
2019-03-21T08:11:44.106Z,16024
2019-03-21T08:12:44.798Z,17032
2019-03-21T08:13:45.497Z,17984
2019-03-21T08:14:46.196Z,19232
2019-03-21T08:15:46.895Z,20000
2019-03-21T08:16:47.587Z,19840
2019-03-21T08:17:48.285Z,19808
2019-03-21T08:18:48.976Z,20160
2019-03-21T08:19:49.670Z,20576
2019-03-21T08:20:57.297Z,20128
2019-03-21T08:21:51.059Z,19136
2019-03-21T08:22:51.748Z,18080
2019-03-21T08:23:52.446Z,17492
2019-03-21T08:24:53.143Z,18144
2019-03-21T08:25:53.841Z,19104
2019-03-21T08:26:54.539Z,20160
2019-03-21T08:27:55.232Z,20416
2019-03-21T08:28:55.922Z,20512
2019-03-21T08:29:56.617Z,21024
2019-03-21T08:30:57.312Z,21344
2019-03-21T08:31:58.007Z,22144
2019-03-21T08:32:58.673Z,25696
2019-03-21T08:33:59.375Z,26528
2019-03-21T08:35:00.071Z,30016
2019-03-21T08:36:00.763Z,28384
2019-03-21T08:37:01.472Z,32288
2019-03-21T08:38:02.161Z,27456
2019-03-21T08:39:02.870Z,25376
2019-03-21T08:40:03.556Z,30368
2019-03-21T08:41:04.257Z,35840
2019-03-21T08:42:04.949Z,26272
2019-03-21T08:43:05.652Z,33504
2019-03-21T08:44:06.341Z,37120
2019-03-21T08:45:07.036Z,39712
2019-03-21T08:46:07.740Z,38144
2019-03-21T08:47:08.437Z,35520
2019-03-21T08:48:09.139Z,34656
2019-03-21T08:49:09.838Z,35264
2019-03-21T08:50:10.535Z,36032
2019-03-21T08:51:11.236Z,38080
2019-03-21T08:52:11.935Z,39552
2019-03-21T08:53:12.657Z,39584
2019-03-21T08:54:13.336Z,38656
2019-03-21T08:55:14.046Z,40192
2019-03-21T08:56:14.754Z,42016
2019-03-21T08:57:15.443Z,41344
2019-03-21T08:58:16.149Z,43264
2019-03-21T08:59:16.841Z,46656
2019-03-21T09:00:17.548Z,47136
2019-03-21T09:01:18.241Z,47008
2019-03-21T09:02:18.939Z,48224
2019-03-21T09:03:19.642Z,49312
2019-03-21T09:04:20.346Z,46720
2019-03-21T09:05:21.039Z,46848
2019-03-21T09:06:21.742Z,47488
2019-03-21T09:07:22.436Z,47360
2019-03-21T09:08:23.150Z,44448
2019-03-21T09:09:23.834Z,45216
2019-03-21T09:10:24.522Z,48128
2019-03-21T09:11:25.225Z,51008
2019-03-21T09:12:25.919Z,46944
2019-03-21T09:13:26.614Z,36864
2019-03-21T09:14:27.282Z,25536
2019-03-21T09:15:27.978Z,34816
2019-03-21T09:16:28.674Z,49344
2019-03-21T09:17:29.379Z,46944
2019-03-21T09:18:30.076Z,33920
2019-03-21T09:19:30.773Z,25568
2019-03-21T09:20:31.486Z,33280
2019-03-21T09:21:32.180Z,24512
2019-03-21T09:22:32.883Z,27712
2019-03-21T09:23:33.585Z,46816
2019-03-21T09:24:34.288Z,25408
2019-03-21T09:25:34.977Z,19424
2019-03-21T09:26:35.672Z,20096
2019-03-21T09:27:36.370Z,22528
2019-03-21T09:28:37.069Z,53248
2019-03-21T09:29:37.774Z,47424
2019-03-21T09:30:38.465Z,33216
2019-03-21T09:31:39.166Z,33664
2019-03-21T09:32:39.866Z,45856
2019-03-21T09:33:40.562Z,44480
2019-03-21T09:34:41.261Z,32096
2019-03-21T09:35:41.966Z,46304
2019-03-21T09:36:42.659Z,48416
2019-03-21T09:37:43.357Z,46784
2019-03-21T09:38:44.053Z,46432
2019-03-21T09:39:44.752Z,43712
2019-03-21T09:40:45.450Z,28096
2019-03-21T09:41:46.151Z,44960
2019-03-21T09:42:46.850Z,42464
2019-03-21T09:43:47.548Z,32640
2019-03-21T09:44:48.243Z,21760
2019-03-21T09:45:48.949Z,27584
2019-03-21T09:46:51.133Z,33760
2019-03-21T09:47:50.338Z,16976
2019-03-21T09:48:51.037Z,20704
2019-03-21T09:49:51.737Z,49856
2019-03-21T09:50:52.440Z,28448
2019-03-21T09:51:53.138Z,26432
2019-03-21T09:52:53.834Z,43968
2019-03-21T09:53:54.535Z,33056
2019-03-21T09:54:55.234Z,46272
2019-03-21T09:55:55.933Z,25632
2019-03-21T09:56:56.645Z,47584
2019-03-21T09:57:57.335Z,45024
2019-03-21T09:58:58.035Z,53696
2019-03-21T09:59:58.736Z,49664
2019-03-21T10:00:59.432Z,48800
2019-03-21T10:02:00.143Z,47040
2019-03-21T10:03:00.828Z,35968
2019-03-21T10:04:01.525Z,50240
2019-03-21T10:05:02.227Z,53536
2019-03-21T10:06:02.924Z,52704
2019-03-21T10:07:03.621Z,51648
2019-03-21T10:08:04.327Z,47424
2019-03-21T10:09:05.015Z,55392
2019-03-21T10:10:05.716Z,55040
2019-03-21T10:11:06.430Z,53568
2019-03-21T10:12:07.112Z,49408
2019-03-21T10:13:07.819Z,48512
2019-03-21T10:14:08.511Z,47232
2019-03-21T10:15:09.211Z,55488
2019-03-21T10:16:09.906Z,52992
2019-03-21T10:17:10.610Z,53984
2019-03-21T10:18:11.309Z,52960
2019-03-21T10:19:12.013Z,51392
2019-03-21T10:20:12.711Z,52800
2019-03-21T10:21:13.410Z,54624
2019-03-21T10:22:14.109Z,55616
2019-03-21T10:23:14.782Z,56416
2019-03-21T10:24:15.486Z,55520
2019-03-21T10:25:16.183Z,56320
2019-03-21T10:26:16.894Z,55936
2019-03-21T10:27:17.580Z,55456
2019-03-21T10:28:18.283Z,54784
2019-03-21T10:29:18.979Z,56704
2019-03-21T10:30:19.676Z,56576
2019-03-21T10:31:20.379Z,54336
2019-03-21T10:32:21.079Z,49216
2019-03-21T10:33:21.777Z,46624
2019-03-21T10:34:22.479Z,48480
2019-03-21T10:35:23.180Z,50464
2019-03-21T10:36:23.874Z,48864
2019-03-21T10:37:24.573Z,48320
2019-03-21T10:38:25.276Z,45248
2019-03-21T10:39:25.991Z,48960
2019-03-21T10:40:26.682Z,48704
2019-03-21T10:41:27.391Z,48192
2019-03-21T10:42:28.091Z,48928
2019-03-21T10:43:28.793Z,53312
2019-03-21T10:44:29.492Z,54304
2019-03-21T10:45:30.194Z,54368
2019-03-21T10:46:30.896Z,55008
2019-03-21T10:47:31.593Z,55264
2019-03-21T10:48:32.294Z,54016
2019-03-21T10:49:32.998Z,55168
2019-03-21T10:50:33.713Z,61120
2019-03-21T10:51:34.408Z,57952
2019-03-21T10:52:35.101Z,58592
2019-03-21T10:53:35.802Z,56960
2019-03-21T10:54:36.503Z,54272
2019-03-21T10:55:37.206Z,62592
2019-03-21T10:56:37.909Z,63520
2019-03-21T10:57:38.614Z,62112
2019-03-21T10:58:39.307Z,57472
2019-03-21T10:59:40.013Z,56832
2019-03-21T11:00:40.718Z,55808
2019-03-21T11:01:41.417Z,56352
2019-03-21T11:02:42.122Z,32640
2019-03-21T11:03:42.834Z,59040
2019-03-21T11:04:43.530Z,63936
2019-03-21T11:05:44.233Z,64992
2019-03-21T11:06:44.932Z,63424
2019-03-21T11:07:45.638Z,58816
2019-03-21T11:08:46.334Z,57408
2019-03-21T11:09:47.034Z,55872
2019-03-21T11:10:47.737Z,56960
2019-03-21T11:11:48.449Z,51168
2019-03-21T11:12:49.192Z,53184
2019-03-21T11:13:49.898Z,56736
2019-03-21T11:14:50.604Z,58048
2019-03-21T11:15:51.318Z,54368
2019-03-21T11:16:52.021Z,56288
2019-03-21T11:17:52.722Z,58720
2019-03-21T11:18:53.431Z,62592
2019-03-21T11:19:54.134Z,63264
2019-03-21T11:20:54.835Z,65760
2019-03-21T11:22:05.849Z,65920
2019-03-21T11:22:56.231Z,58848
2019-03-21T11:23:56.939Z,56960
2019-03-21T11:24:57.637Z,55360
2019-03-21T11:25:58.339Z,55968
2019-03-21T11:26:59.041Z,51168
2019-03-21T11:27:59.742Z,47744
2019-03-21T11:29:00.445Z,50944
2019-03-21T11:30:01.150Z,53888
2019-03-21T11:31:01.846Z,58048
2019-03-21T11:32:02.572Z,58976
2019-03-21T11:33:03.263Z,61536
2019-03-21T11:34:03.961Z,60000
2019-03-21T11:35:04.664Z,59584
2019-03-21T11:36:05.411Z,60032
2019-03-21T11:37:06.112Z,62528
2019-03-21T11:38:06.812Z,64256
2019-03-21T11:39:07.516Z,61440
2019-03-21T11:40:08.219Z,58976
2019-03-21T11:41:08.925Z,56256
2019-03-21T11:42:09.633Z,56864
2019-03-21T11:43:10.322Z,55680
2019-03-21T11:44:11.028Z,52480
2019-03-21T11:45:11.761Z,52128
2019-03-21T11:46:12.433Z,54368
2019-03-21T11:47:13.149Z,53984
2019-03-21T11:48:13.851Z,51584
2019-03-21T11:49:14.546Z,52640
2019-03-21T11:50:15.256Z,57376
2019-03-21T11:51:15.970Z,56832
2019-03-21T11:52:18.493Z,59168
2019-03-21T11:53:17.358Z,61216
2019-03-21T11:54:18.063Z,59328
2019-03-21T11:55:18.770Z,51328
2019-03-21T11:56:19.470Z,47648
2019-03-21T11:57:20.178Z,40544
2019-03-21T11:58:20.874Z,37312
2019-03-21T11:59:21.577Z,37152
2019-03-21T12:00:22.282Z,37984
2019-03-21T12:01:22.991Z,37696
2019-03-21T12:02:27.393Z,36672
2019-03-21T12:03:24.578Z,36992
2019-03-21T12:04:25.084Z,32544
2019-03-21T12:05:25.806Z,33696
2019-03-21T12:06:26.487Z,37184
2019-03-21T12:07:27.192Z,37824
2019-03-21T12:08:27.903Z,34912
2019-03-21T12:09:28.575Z,35200
2019-03-21T12:10:29.276Z,35264
2019-03-21T12:11:29.992Z,37984
2019-03-21T12:12:30.685Z,38816
2019-03-21T12:13:31.384Z,37600
2019-03-21T12:14:32.096Z,37440
2019-03-21T12:15:32.799Z,36224
2019-03-21T12:16:33.493Z,36704
2019-03-21T12:17:34.201Z,40544
2019-03-21T12:18:34.903Z,40448
2019-03-21T12:19:35.604Z,40320
2019-03-21T12:20:36.311Z,39392
2019-03-21T12:21:37.014Z,40832
2019-03-21T12:22:37.718Z,43712
2019-03-21T12:23:38.420Z,49280
2019-03-21T12:24:39.126Z,43680
2019-03-21T12:25:39.829Z,50112
2019-03-21T12:26:40.527Z,51616
2019-03-21T12:27:41.229Z,51104
2019-03-21T12:28:41.938Z,57088
2019-03-21T12:29:42.641Z,55776
2019-03-21T12:30:43.342Z,51328
2019-03-21T12:31:44.049Z,52352
2019-03-21T12:32:44.749Z,55968
2019-03-21T12:33:45.454Z,54560
2019-03-21T12:34:46.157Z,40544
2019-03-21T12:35:46.859Z,56352
2019-03-21T12:36:47.562Z,58560
2019-03-21T12:37:48.264Z,57664
2019-03-21T12:38:48.968Z,54464
2019-03-21T12:39:49.678Z,49408
2019-03-21T12:40:50.383Z,40768
2019-03-21T12:41:51.091Z,48192
2019-03-21T12:42:51.798Z,50272
2019-03-21T12:43:52.506Z,26208
2019-03-21T12:44:53.210Z,48864
2019-03-21T12:45:53.912Z,54048
2019-03-21T12:46:54.617Z,49600
2019-03-21T12:47:55.318Z,40992
2019-03-21T12:48:56.027Z,48704
2019-03-21T12:49:56.723Z,45792
2019-03-21T12:50:57.434Z,49632
2019-03-21T12:51:58.148Z,51296
2019-03-21T12:52:58.851Z,55136
2019-03-21T12:53:59.559Z,56544
2019-03-21T12:55:00.355Z,53056
2019-03-21T12:56:00.962Z,48480
2019-03-21T12:57:01.667Z,46944
2019-03-21T12:58:02.382Z,39904
2019-03-21T12:59:03.073Z,36320
2019-03-21T13:00:03.776Z,30432
2019-03-21T13:01:04.478Z,40544
2019-03-21T13:02:05.183Z,42208
2019-03-21T13:03:05.892Z,34144
2019-03-21T13:04:06.590Z,21856
2019-03-21T13:05:07.293Z,25792
2019-03-21T13:06:07.997Z,28768
2019-03-21T13:07:08.699Z,28352
2019-03-21T13:08:09.403Z,31040
2019-03-21T13:09:10.102Z,26560
2019-03-21T13:10:10.804Z,27296
2019-03-21T13:11:11.515Z,33312
2019-03-21T13:12:12.215Z,25248
2019-03-21T13:13:12.919Z,26432
2019-03-21T13:14:13.623Z,38976
2019-03-21T13:15:14.329Z,34976
2019-03-21T13:16:15.027Z,29824
2019-03-21T13:17:15.732Z,28128
2019-03-21T13:18:16.440Z,24544
2019-03-21T13:19:17.147Z,25696
2019-03-21T13:20:17.850Z,25696
2019-03-21T13:21:18.547Z,24064
2019-03-21T13:22:19.254Z,22976
2019-03-21T13:23:19.958Z,21728
2019-03-21T13:24:20.653Z,23552
2019-03-21T13:25:21.353Z,22304
2019-03-21T13:26:22.060Z,19936
2019-03-21T13:27:22.762Z,21888
2019-03-21T13:28:23.468Z,25088
2019-03-21T13:29:25.257Z,28576
2019-03-21T13:30:24.871Z,29856
2019-03-21T13:31:25.572Z,29184
2019-03-21T13:32:26.283Z,28096
2019-03-21T13:33:26.984Z,27648
2019-03-21T13:34:27.684Z,27680
2019-03-21T13:35:33.026Z,26624
2019-03-21T13:36:29.085Z,26592
2019-03-21T13:37:32.203Z,26816
2019-03-21T13:38:30.489Z,28128
2019-03-21T13:39:31.198Z,27008
2019-03-21T13:40:31.901Z,21952
2019-03-21T13:41:32.595Z,25472
2019-03-21T13:42:33.298Z,24384
2019-03-21T13:43:34.000Z,23328
2019-03-21T13:44:34.704Z,23808
2019-03-21T13:45:35.413Z,23360
2019-03-21T13:46:36.105Z,24352
2019-03-21T13:47:36.805Z,25728
2019-03-21T13:48:37.507Z,23712
2019-03-21T13:49:38.209Z,21824